Time;durP1;ratioP1;P1;durP2;ratioP2;P2;SDS_P1;SDS_P2;PMS_P1;PMS_P2;Temp;Humidity;BMP_temperature;BMP_pressure;BME280_temperature;BME280_humidity;BME280_pressure;Samples;Min_cycle;Max_cycle;Signal;HPM_P1;HPM_P2
2023/11/12 00:02:18;;;;;;;5.43;5.20;;;22.40;64.00;;;;;;5021791;28;20940;-67
2023/11/12 00:04:45;;;;;;;4.03;3.93;;;22.40;63.70;;;;;;5011526;28;21003;-67
2023/11/12 00:07:12;;;;;;;4.33;4.23;;;22.40;63.70;;;;;;5011506;28;20457;-67
2023/11/12 00:09:40;;;;;;;3.87;3.67;;;22.40;63.90;;;;;;5015474;28;20492;-67
2023/11/12 00:12:08;;;;;;;4.57;4.47;;;22.40;64.10;;;;;;5014889;28;20497;-67
2023/11/12 00:14:40;;;;;;;4.67;4.47;;;22.40;64.10;;;;;;5011487;28;20535;-68
2023/11/12 00:17:07;;;;;;;4.60;4.40;;;22.40;64.00;;;;;;5011517;28;20446;-67
2023/11/12 00:19:34;;;;;;;4.40;4.20;;;22.40;64.00;;;;;;5014851;28;20479;-68
2023/11/12 00:22:01;;;;;;;4.17;4.07;;;22.40;64.10;;;;;;5015502;28;20470;-67
2023/11/12 00:24:28;;;;;;;4.67;4.50;;;22.40;64.20;;;;;;5011437;28;20458;-68
2023/11/12 00:26:55;;;;;;;4.43;4.30;;;22.40;64.00;;;;;;5011578;28;20474;-68
2023/11/12 00:29:22;;;;;;;4.17;4.07;;;22.30;63.90;;;;;;5011612;28;20482;-67
2023/11/12 00:31:51;;;;;;;5.00;4.67;;;22.40;63.70;;;;;;5011504;28;20481;-67
2023/11/12 00:34:17;;;;;;;4.40;4.30;;;22.40;63.80;;;;;;5011161;28;20520;-67
2023/11/12 00:36:44;;;;;;;3.90;3.77;;;22.40;64.00;;;;;;5011283;28;20450;-67
2023/11/12 00:39:12;;;;;;;4.33;4.23;;;22.40;63.80;;;;;;5011765;28;20465;-67
2023/11/12 00:41:39;;;;;;;4.53;4.43;;;22.30;63.70;;;;;;5011490;28;20470;-67
2023/11/12 00:44:10;;;;;;;4.07;3.97;;;22.40;63.90;;;;;;5011937;28;20460;-68
2023/11/12 00:46:38;;;;;;;4.60;4.40;;;22.40;64.00;;;;;;5014975;28;20777;-67
2023/11/12 00:49:06;;;;;;;4.07;3.97;;;22.30;63.90;;;;;;5015411;28;20465;-68
2023/11/12 00:51:34;;;;;;;4.63;4.53;;;22.30;64.00;;;;;;5007302;28;20442;-67
2023/11/12 00:54:01;;;;;;;3.50;3.40;;;22.30;64.00;;;;;;5014816;28;20491;-67
2023/11/12 00:56:28;;;;;;;4.17;4.07;;;22.30;63.90;;;;;;5014844;28;20444;-67
2023/11/12 00:58:55;;;;;;;4.30;4.10;;;22.30;63.80;;;;;;5014951;28;20484;-67
2023/11/12 01:01:22;;;;;;;3.90;3.70;;;22.30;63.80;;;;;;5022732;28;20491;-68
2023/11/12 01:03:49;;;;;;;4.00;3.90;;;22.30;63.60;;;;;;5014554;28;20833;-67
2023/11/12 01:06:17;;;;;;;3.83;3.73;;;22.30;63.70;;;;;;5014773;28;20449;-67
2023/11/12 01:08:45;;;;;;;4.37;4.27;;;22.30;63.90;;;;;;5014996;28;20474;-68
2023/11/12 01:11:13;;;;;;;4.47;4.37;;;22.30;63.80;;;;;;5014562;28;20523;-68
2023/11/12 01:13:40;;;;;;;5.63;5.33;;;22.30;63.90;;;;;;5014535;28;20914;-67
2023/11/12 01:16:07;;;;;;;4.43;4.33;;;22.30;63.90;;;;;;5014505;28;20446;-67
2023/11/12 01:18:35;;;;;;;4.83;4.63;;;22.30;64.10;;;;;;5014585;28;20453;-68
2023/11/12 01:21:04;;;;;;;4.40;4.30;;;22.30;64.00;;;;;;5020084;28;20547;-67
2023/11/12 01:23:32;;;;;;;4.30;4.20;;;22.30;63.90;;;;;;5014467;28;20442;-68
2023/11/12 01:25:59;;;;;;;4.73;4.50;;;22.30;63.80;;;;;;5014280;28;20544;-68
2023/11/12 01:28:29;;;;;;;4.10;3.90;;;22.30;63.60;;;;;;5019213;28;20457;-68
2023/11/12 01:30:56;;;;;;;4.73;4.43;;;22.30;63.50;;;;;;5021839;28;20454;-67
2023/11/12 01:33:23;;;;;;;4.77;4.57;;;22.30;63.60;;;;;;5018832;28;20469;-68
2023/11/12 01:35:51;;;;;;;4.60;4.50;;;22.30;63.70;;;;;;5018462;28;20461;-67
2023/11/12 01:38:18;;;;;;;4.50;4.37;;;22.30;63.80;;;;;;5017654;28;20525;-67
2023/11/12 01:40:47;;;;;;;4.60;4.47;;;22.30;63.90;;;;;;5016735;28;20470;-67
2023/11/12 01:43:16;;;;;;;4.63;4.33;;;22.30;64.00;;;;;;5013973;28;20816;-67
2023/11/12 01:45:43;;;;;;;4.90;4.50;;;22.20;64.00;;;;;;5015085;28;20497;-67
2023/11/12 01:48:12;;;;;;;4.80;4.50;;;22.30;64.10;;;;;;5013909;28;20442;-67
2023/11/12 01:50:41;;;;;;;4.10;3.90;;;22.20;63.90;;;;;;5013979;28;20841;-67
2023/11/12 01:53:09;;;;;;;4.57;4.37;;;22.20;64.00;;;;;;5013687;28;20454;-66
2023/11/12 01:55:36;;;;;;;4.23;4.10;;;22.20;64.00;;;;;;5013176;28;20569;-67
2023/11/12 01:58:05;;;;;;;4.33;4.13;;;22.20;63.80;;;;;;5013718;28;20476;-67
2023/11/12 02:00:33;;;;;;;4.47;4.27;;;22.30;63.80;;;;;;5014013;28;20442;-67
2023/11/12 02:03:03;;;;;;;3.90;3.80;;;22.20;64.00;;;;;;5013683;28;20445;-67
2023/11/12 02:05:31;;;;;;;4.60;4.40;;;22.20;64.20;;;;;;5013277;28;20462;-67
2023/11/12 02:08:00;;;;;;;4.60;4.50;;;22.30;64.20;;;;;;5019852;28;20512;-66
2023/11/12 02:10:28;;;;;;;4.70;4.60;;;22.30;64.20;;;;;;5013557;28;20457;-67
2023/11/12 02:12:56;;;;;;;4.50;4.40;;;22.20;64.20;;;;;;5013597;28;20466;-67
2023/11/12 02:15:25;;;;;;;4.30;4.20;;;22.20;64.10;;;;;;5013125;28;20561;-67
2023/11/12 02:17:52;;;;;;;4.97;4.73;;;22.20;64.10;;;;;;5013366;28;20930;-67
2023/11/12 02:20:19;;;;;;;4.00;3.90;;;22.20;64.00;;;;;;5015639;28;20457;-67
2023/11/12 02:22:46;;;;;;;4.37;4.27;;;22.20;64.10;;;;;;5013212;28;20508;-67
2023/11/12 02:25:14;;;;;;;3.80;3.70;;;22.20;64.10;;;;;;5013026;28;20489;-66
2023/11/12 02:27:44;;;;;;;4.43;4.33;;;22.20;63.70;;;;;;5013216;28;20445;-67
2023/11/12 02:30:12;;;;;;;4.50;4.30;;;22.20;63.80;;;;;;5012988;28;20549;-66
2023/11/12 02:32:40;;;;;;;4.30;4.00;;;22.20;63.80;;;;;;5012974;28;20504;-66
2023/11/12 02:35:08;;;;;;;4.00;3.90;;;22.20;63.80;;;;;;5012856;28;20577;-66
2023/11/12 02:37:37;;;;;;;4.07;3.97;;;22.20;64.10;;;;;;5005174;28;20446;-67
2023/11/12 02:40:05;;;;;;;4.10;4.00;;;22.20;64.10;;;;;;5017535;28;20526;-67
2023/11/12 02:42:34;;;;;;;4.13;4.03;;;22.20;63.90;;;;;;5013152;28;20453;-67
2023/11/12 02:45:01;;;;;;;4.27;4.17;;;22.20;63.70;;;;;;5012983;28;20872;-67
2023/11/12 02:47:28;;;;;;;4.10;4.00;;;22.20;64.30;;;;;;5012723;28;20887;-67
2023/11/12 02:50:20;;;;;;;4.53;4.40;;;22.20;64.10;;;;;;5012832;28;20447;-67
2023/11/12 02:52:49;;;;;;;4.30;4.10;;;22.20;64.40;;;;;;5006499;28;20458;-66
2023/11/12 02:55:16;;;;;;;4.93;4.43;;;22.20;64.20;;;;;;5012420;28;20481;-66
2023/11/12 02:57:45;;;;;;;4.27;4.07;;;22.20;63.90;;;;;;5013727;28;20945;-67
2023/11/12 03:00:14;;;;;;;5.13;4.73;;;22.20;64.00;;;;;;5012446;28;20450;-66
2023/11/12 03:02:41;;;;;;;4.40;4.30;;;22.20;64.00;;;;;;5012747;28;20442;-67
2023/11/12 03:05:09;;;;;;;5.43;5.23;;;22.20;64.10;;;;;;5012494;28;20900;-66
2023/11/12 03:07:36;;;;;;;4.50;4.30;;;22.20;64.10;;;;;;5012109;28;20930;-66
2023/11/12 03:10:04;;;;;;;3.80;3.60;;;22.20;64.10;;;;;;5012511;28;20449;-66
2023/11/12 03:12:31;;;;;;;3.87;3.80;;;22.20;64.10;;;;;;5012242;28;20445;-66
2023/11/12 03:15:00;;;;;;;6.53;4.13;;;22.20;64.20;;;;;;5012057;28;20901;-66
2023/11/12 03:17:27;;;;;;;4.17;4.07;;;22.20;65.00;;;;;;5016409;28;20489;-66
2023/11/12 03:19:54;;;;;;;4.10;3.90;;;22.20;64.30;;;;;;5012254;28;20460;-66
2023/11/12 03:22:22;;;;;;;3.63;3.53;;;22.20;64.20;;;;;;5012172;28;20959;-66
2023/11/12 03:24:49;;;;;;;3.93;3.83;;;22.20;64.20;;;;;;5012092;28;20973;-66
2023/11/12 03:27:16;;;;;;;4.57;4.33;;;22.20;64.00;;;;;;5011964;28;20446;-66
2023/11/12 03:29:43;;;;;;;4.20;4.07;;;22.20;64.10;;;;;;5012304;28;20972;-66
2023/11/12 03:32:11;;;;;;;4.33;4.07;;;22.20;64.20;;;;;;5012371;28;20496;-66
2023/11/12 03:34:38;;;;;;;4.47;4.17;;;22.20;64.30;;;;;;5003984;28;20509;-66
2023/11/12 03:37:05;;;;;;;4.50;4.40;;;22.20;64.20;;;;;;5013825;28;20454;-66
2023/11/12 03:39:32;;;;;;;4.80;4.70;;;22.20;64.10;;;;;;5011951;28;20489;-66
2023/11/12 03:41:59;;;;;;;4.90;4.70;;;22.20;64.00;;;;;;5011926;28;20529;-66
2023/11/12 03:44:26;;;;;;;4.30;4.20;;;22.20;64.00;;;;;;5011661;28;20842;-66
2023/11/12 03:46:53;;;;;;;3.90;3.80;;;22.20;64.20;;;;;;5011931;28;20478;-66
2023/11/12 03:49:21;;;;;;;4.70;4.40;;;22.20;64.20;;;;;;5011682;28;20470;-66
2023/11/12 03:51:48;;;;;;;4.50;4.40;;;22.20;64.20;;;;;;5011834;28;20476;-66
2023/11/12 03:54:16;;;;;;;4.80;4.50;;;22.20;64.00;;;;;;5011540;28;20886;-66
2023/11/12 03:56:43;;;;;;;5.03;4.83;;;22.20;63.90;;;;;;5018591;28;20454;-66
2023/11/12 03:59:11;;;;;;;4.20;4.00;;;22.20;64.00;;;;;;5011949;28;20470;-66
2023/11/12 04:01:38;;;;;;;4.17;3.97;;;22.20;63.90;;;;;;5011820;28;20505;-66
2023/11/12 04:04:06;;;;;;;4.23;3.97;;;22.20;63.70;;;;;;5011536;28;20878;-66
2023/11/12 04:06:34;;;;;;;4.13;4.03;;;22.20;63.90;;;;;;5013561;28;20469;-66
2023/11/12 04:09:02;;;;;;;4.40;4.30;;;22.20;64.10;;;;;;5016885;28;20478;-66
2023/11/12 04:11:29;;;;;;;4.50;4.30;;;22.20;64.10;;;;;;5011565;28;20824;-67
2023/11/12 04:13:55;;;;;;;4.03;3.93;;;22.20;64.20;;;;;;5011505;28;20512;-67
2023/11/12 04:16:22;;;;;;;4.40;4.00;;;22.20;64.10;;;;;;5011573;28;20488;-67
2023/11/12 04:18:49;;;;;;;4.40;4.10;;;22.20;64.10;;;;;;5012656;28;20489;-66
2023/11/12 04:21:16;;;;;;;4.70;4.40;;;22.20;64.10;;;;;;5015469;28;20466;-67
2023/11/12 04:23:46;;;;;;;4.07;3.87;;;22.20;64.10;;;;;;5015414;28;20484;-66
2023/11/12 04:26:14;;;;;;;4.23;4.00;;;22.20;64.30;;;;;;5015458;28;20453;-67
2023/11/12 04:28:40;;;;;;;3.90;3.80;;;22.20;64.50;;;;;;5015463;28;20454;-67
2023/11/12 04:31:08;;;;;;;4.57;4.37;;;22.20;64.50;;;;;;5015602;28;20489;-67
2023/11/12 04:33:35;;;;;;;4.47;4.37;;;22.20;64.60;;;;;;5015204;28;20438;-67
2023/11/12 04:36:02;;;;;;;4.43;4.03;;;22.20;64.60;;;;;;5015457;28;20564;-67
2023/11/12 04:38:28;;;;;;;4.33;4.17;;;22.20;64.20;;;;;;5015540;28;20454;-67
2023/11/12 04:40:57;;;;;;;4.87;4.50;;;22.20;64.00;;;;;;5021056;28;20476;-67
2023/11/12 04:43:24;;;;;;;4.53;4.33;;;22.20;64.50;;;;;;5015274;28;20866;-67
2023/11/12 04:45:51;;;;;;;4.67;4.47;;;22.20;64.20;;;;;;5015249;28;20493;-67
2023/11/12 04:48:18;;;;;;;4.70;4.40;;;22.20;64.40;;;;;;5014850;28;20473;-67
2023/11/12 04:50:45;;;;;;;5.13;4.70;;;22.20;64.30;;;;;;5016603;28;21868;-67
2023/11/12 04:53:12;;;;;;;4.93;4.70;;;22.20;64.40;;;;;;5015208;28;20498;-67
2023/11/12 04:55:39;;;;;;;4.70;4.50;;;22.20;64.40;;;;;;5014895;28;20840;-66
2023/11/12 04:58:07;;;;;;;4.37;4.27;;;22.20;64.30;;;;;;5014901;28;20437;-66
2023/11/12 05:00:34;;;;;;;4.50;4.30;;;22.20;64.10;;;;;;5015155;28;22969;-67
2023/11/12 05:03:04;;;;;;;5.23;4.93;;;22.20;64.40;;;;;;5014842;28;20478;-67
2023/11/12 05:05:32;;;;;;;5.43;5.13;;;22.30;64.40;;;;;;5014555;28;20874;-67
2023/11/12 05:07:59;;;;;;;4.90;4.70;;;22.30;64.20;;;;;;5014679;28;20441;-67
2023/11/12 05:10:26;;;;;;;4.83;4.60;;;22.30;64.30;;;;;;5014530;28;20484;-67
2023/11/12 05:12:53;;;;;;;4.03;3.93;;;22.20;64.00;;;;;;5016557;28;20477;-67
2023/11/12 05:15:21;;;;;;;4.47;4.27;;;22.30;64.00;;;;;;5017017;28;20484;-67
2023/11/12 05:17:48;;;;;;;5.00;4.70;;;22.30;64.30;;;;;;5014470;28;20477;-67
2023/11/12 05:20:15;;;;;;;4.40;4.27;;;22.30;64.40;;;;;;5014562;28;20456;-67
2023/11/12 05:22:42;;;;;;;4.57;4.37;;;22.30;64.30;;;;;;5014598;28;20941;-67
2023/11/12 05:25:12;;;;;;;4.50;4.30;;;22.30;64.20;;;;;;5014327;28;20504;-67
2023/11/12 05:27:39;;;;;;;5.07;4.77;;;22.30;64.30;;;;;;5014154;28;20440;-67
2023/11/12 05:30:08;;;;;;;4.57;4.27;;;22.30;64.10;;;;;;5014119;28;20500;-67
2023/11/12 05:32:36;;;;;;;7.07;4.53;;;22.40;64.20;;;;;;5014182;28;20594;-66
2023/11/12 05:35:03;;;;;;;4.40;4.30;;;22.40;64.10;;;;;;5014026;28;20578;-67
2023/11/12 05:37:30;;;;;;;4.77;4.57;;;22.30;64.00;;;;;;5014194;28;20610;-67
2023/11/12 05:39:57;;;;;;;4.90;4.80;;;22.30;63.90;;;;;;5014221;28;20450;-67
2023/11/12 05:42:24;;;;;;;4.83;4.63;;;22.40;64.10;;;;;;5013897;28;20450;-67
2023/11/12 05:44:51;;;;;;;5.17;4.97;;;22.40;64.00;;;;;;5013942;28;20553;-67
2023/11/12 05:47:18;;;;;;;5.40;5.10;;;22.40;64.10;;;;;;5013833;28;20473;-67
2023/11/12 05:49:46;;;;;;;4.90;4.70;;;22.40;63.90;;;;;;5017911;28;20478;-67
2023/11/12 05:52:13;;;;;;;5.23;4.80;;;22.40;63.90;;;;;;5018174;28;20876;-67
2023/11/12 05:54:40;;;;;;;5.87;5.60;;;22.40;64.00;;;;;;5013503;28;20897;-67
2023/11/12 05:57:07;;;;;;;5.43;5.30;;;22.40;63.70;;;;;;5013854;28;20500;-67
2023/11/12 05:59:34;;;;;;;6.20;5.83;;;22.40;63.90;;;;;;5013677;28;20821;-67
2023/11/12 06:02:01;;;;;;;5.20;5.10;;;22.40;63.90;;;;;;5013794;28;20478;-67
2023/11/12 06:04:28;;;;;;;4.80;4.60;;;22.40;64.10;;;;;;5013390;28;20601;-68
2023/11/12 06:06:56;;;;;;;5.33;5.13;;;22.40;64.00;;;;;;5013627;28;20470;-67
2023/11/12 06:09:23;;;;;;;5.33;4.97;;;22.40;63.90;;;;;;5013399;28;20474;-68
2023/11/12 06:11:51;;;;;;;5.40;5.10;;;22.50;64.20;;;;;;5013544;28;20442;-67
2023/11/12 06:14:18;;;;;;;5.13;4.90;;;22.50;64.00;;;;;;5019855;28;20478;-68
2023/11/12 06:16:45;;;;;;;5.47;5.27;;;22.50;64.10;;;;;;5013330;28;20574;-67
2023/11/12 06:19:12;;;;;;;5.27;4.90;;;22.50;64.10;;;;;;5013444;28;20474;-67
2023/11/12 06:21:39;;;;;;;4.70;4.60;;;22.50;64.30;;;;;;5013319;28;20469;-66
2023/11/12 06:24:08;;;;;;;4.73;4.50;;;22.50;64.40;;;;;;5013291;28;20501;-67
2023/11/12 06:26:35;;;;;;;5.13;4.90;;;22.50;64.30;;;;;;5013075;28;20484;-68
2023/11/12 06:29:02;;;;;;;4.63;4.47;;;22.50;64.30;;;;;;5013253;28;20470;-67
2023/11/12 06:31:29;;;;;;;5.30;5.10;;;22.50;64.30;;;;;;5013066;28;20478;-67
2023/11/12 06:33:56;;;;;;;4.90;4.60;;;22.50;64.70;;;;;;5013104;28;20524;-68
2023/11/12 06:36:23;;;;;;;5.20;4.83;;;22.50;64.40;;;;;;5012866;28;20509;-67
2023/11/12 06:38:49;;;;;;;5.27;4.77;;;22.50;64.20;;;;;;5018436;28;20454;-68
2023/11/12 06:41:18;;;;;;;4.73;4.53;;;22.50;64.10;;;;;;5012588;28;20458;-67
2023/11/12 06:43:44;;;;;;;5.10;4.70;;;22.50;64.10;;;;;;5004775;28;20484;-67
2023/11/12 06:46:11;;;;;;;4.60;4.40;;;22.50;64.10;;;;;;5012894;28;20470;-68
2023/11/12 06:48:39;;;;;;;4.63;4.33;;;22.50;64.20;;;;;;5012667;28;20482;-67
2023/11/12 06:51:07;;;;;;;4.50;4.40;;;22.50;64.10;;;;;;5012909;28;20450;-67
2023/11/12 06:53:33;;;;;;;4.97;4.67;;;22.50;64.50;;;;;;5012654;28;20508;-68
2023/11/12 06:56:00;;;;;;;5.03;4.77;;;22.50;64.40;;;;;;5012652;28;20506;-67
2023/11/12 06:58:29;;;;;;;4.70;4.60;;;22.50;64.40;;;;;;5012798;28;20510;-66
2023/11/12 07:00:56;;;;;;;4.70;4.53;;;22.50;64.40;;;;;;5017054;28;20828;-67
2023/11/12 07:03:22;;;;;;;5.20;5.00;;;22.60;64.40;;;;;;5015522;28;20470;-67
2023/11/12 07:05:50;;;;;;;5.20;4.70;;;22.60;64.50;;;;;;5012025;28;20489;-67
2023/11/12 07:08:19;;;;;;;5.43;5.00;;;22.60;65.80;;;;;;5012544;28;20473;-65
2023/11/12 07:10:46;;;;;;;5.37;4.97;;;22.70;65.10;;;;;;5004718;28;20464;-66
2023/11/12 07:13:14;;;;;;;5.53;5.23;;;22.80;65.10;;;;;;5012551;28;20454;-66
2023/11/12 07:15:44;;;;;;;8.30;5.43;;;22.80;65.80;;;;;;5011938;28;20482;-66
2023/11/12 07:18:11;;;;;;;5.40;5.17;;;22.90;65.40;;;;;;5012175;28;20452;-66
2023/11/12 07:20:39;;;;;;;5.27;4.87;;;22.90;64.90;;;;;;5011827;28;20485;-66
2023/11/12 07:23:07;;;;;;;5.77;5.47;;;22.90;64.70;;;;;;5012485;28;20544;-66
2023/11/12 07:25:34;;;;;;;5.20;4.80;;;22.90;60.70;;;;;;5011128;28;20443;-65
2023/11/12 07:28:10;;;;;;;5.60;5.40;;;22.80;57.90;;;;;;5012127;28;20234;-66
2023/11/12 07:30:38;;;;;;;6.50;6.07;;;22.80;55.60;;;;;;5011759;28;20452;-65
2023/11/12 07:33:07;;;;;;;6.00;5.70;;;22.70;54.10;;;;;;5012032;28;20481;-62
2023/11/12 07:35:34;;;;;;;7.93;7.53;;;22.70;53.10;;;;;;5012794;28;20478;-62
2023/11/12 07:38:03;;;;;;;5.60;5.20;;;22.60;51.90;;;;;;5011919;28;20954;-62
2023/11/12 07:40:33;;;;;;;4.97;4.77;;;22.50;51.20;;;;;;5011783;28;20862;-61
2023/11/12 07:43:01;;;;;;;5.00;4.90;;;22.50;52.20;;;;;;5011506;28;20858;-62
2023/11/12 07:45:30;;;;;;;7.13;5.10;;;22.60;53.40;;;;;;5014067;28;20484;-62
2023/11/12 07:48:00;;;;;;;4.90;4.40;;;22.60;54.40;;;;;;5011792;28;20457;-61
2023/11/12 07:50:34;;;;;;;5.10;5.00;;;22.60;55.00;;;;;;5019694;28;20485;-61
2023/11/12 07:53:04;;;;;;;6.00;5.40;;;22.70;55.20;;;;;;5014110;28;20457;-62
2023/11/12 07:55:31;;;;;;;9.30;7.70;;;22.80;57.90;;;;;;5011427;28;20989;-62
2023/11/12 07:58:00;;;;;;;7.60;6.03;;;22.80;62.80;;;;;;5011551;28;20889;-62
2023/11/12 08:00:30;;;;;;;12.70;7.63;;;22.90;63.90;;;;;;5012458;28;20454;-61
2023/11/12 08:03:01;;;;;;;23.20;10.50;;;22.90;68.50;;;;;;5012406;28;20485;-61
2023/11/12 08:05:29;;;;;;;25.80;8.90;;;22.90;73.20;;;;;;5013587;28;20941;-62
2023/11/12 08:07:58;;;;;;;13.77;9.10;;;22.90;71.30;;;;;;5011677;28;20486;-61
2023/11/12 08:10:26;;;;;;;11.90;8.40;;;22.90;69.80;;;;;;5011248;28;20457;-65
2023/11/12 08:12:59;;;;;;;14.33;8.27;;;23.00;68.80;;;;;;5011667;28;20874;-65
2023/11/12 08:15:28;;;;;;;12.97;8.60;;;23.00;68.70;;;;;;5018798;28;20852;-65
2023/11/12 08:17:59;;;;;;;13.53;9.23;;;23.00;68.80;;;;;;5018214;28;20482;-65
2023/11/12 08:20:28;;;;;;;13.70;8.60;;;23.00;68.10;;;;;;5018512;28;20473;-63
2023/11/12 08:23:00;;;;;;;8.53;7.70;;;23.10;66.80;;;;;;5018427;28;20457;-66
2023/11/12 08:25:30;;;;;;;9.10;7.07;;;23.20;67.40;;;;;;5014365;28;20853;-62
2023/11/12 08:28:01;;;;;;;14.73;8.00;;;23.30;66.60;;;;;;5011444;28;20453;-62
2023/11/12 08:30:31;;;;;;;9.20;7.77;;;23.30;65.70;;;;;;5011438;28;20524;-64
2023/11/12 08:33:05;;;;;;;12.33;8.13;;;23.30;65.60;;;;;;5011308;28;21017;-62
2023/11/12 08:35:37;;;;;;;9.70;8.30;;;23.40;66.10;;;;;;5015670;28;20573;-62
2023/11/12 08:38:12;;;;;;;10.30;8.37;;;23.30;66.70;;;;;;5011590;28;20850;-62
2023/11/12 08:40:41;;;;;;;11.77;8.33;;;23.30;66.40;;;;;;5015977;28;20544;-66
2023/11/12 08:43:13;;;;;;;14.83;7.50;;;23.30;66.40;;;;;;5016892;28;20552;-66
2023/11/12 08:45:53;;;;;;;13.00;7.67;;;23.40;66.70;;;;;;5009944;28;20473;-66
2023/11/12 08:48:20;;;;;;;11.00;7.33;;;23.40;66.40;;;;;;5010468;28;20977;-64
2023/11/12 08:50:50;;;;;;;7.63;6.93;;;23.40;66.00;;;;;;5017416;28;20531;-64
2023/11/12 08:53:20;;;;;;;16.57;8.13;;;23.40;66.90;;;;;;5010079;28;20454;-64
2023/11/12 08:55:49;;;;;;;9.47;7.40;;;23.30;66.90;;;;;;5015647;28;20511;-64
2023/11/12 08:58:21;;;;;;;19.37;7.83;;;23.30;65.90;;;;;;5014665;28;20464;-64
2023/11/12 09:00:48;;;;;;;10.83;7.00;;;23.30;66.30;;;;;;5015530;28;20452;-64
2023/11/12 09:03:15;;;;;;;18.43;6.67;;;23.30;61.00;;;;;;5021290;28;20511;-66
2023/11/12 09:05:42;;;;;;;8.90;7.50;;;23.30;63.50;;;;;;5017159;28;20501;-66
2023/11/12 09:08:10;;;;;;;8.47;6.87;;;23.30;64.60;;;;;;5019847;28;20477;-65
2023/11/12 09:10:38;;;;;;;6.60;6.07;;;23.20;64.80;;;;;;5017842;28;20469;-67
2023/11/12 09:13:05;;;;;;;7.50;6.20;;;23.20;65.00;;;;;;5014818;28;20482;-66
2023/11/12 09:15:32;;;;;;;12.63;6.73;;;23.20;65.20;;;;;;5014548;28;20474;-66
2023/11/12 09:17:59;;;;;;;10.63;6.40;;;23.30;65.60;;;;;;5017807;28;20460;-66
2023/11/12 09:20:26;;;;;;;7.65;5.53;;;23.30;65.70;;;;;;5017312;28;20575;-64
2023/11/12 09:22:53;;;;;;;7.73;7.13;;;23.30;65.80;;;;;;5014273;28;20209;-66
2023/11/12 09:25:20;;;;;;;7.30;6.60;;;23.30;65.80;;;;;;5014266;28;20498;-66
2023/11/12 09:27:48;;;;;;;6.73;6.13;;;23.40;65.50;;;;;;5021050;28;20470;-67
2023/11/12 09:30:17;;;;;;;6.87;6.30;;;23.30;66.90;;;;;;5020777;28;20450;-66
2023/11/12 09:32:43;;;;;;;5.70;5.30;;;23.30;66.10;;;;;;5021499;28;20458;-67
2023/11/12 09:35:11;;;;;;;6.73;6.20;;;23.40;66.00;;;;;;5019597;28;20501;-65
2023/11/12 09:37:38;;;;;;;6.93;6.43;;;23.30;65.60;;;;;;5014091;28;20484;-64
2023/11/12 09:40:08;;;;;;;7.37;6.80;;;23.30;66.50;;;;;;5014289;28;20453;-66
2023/11/12 09:42:38;;;;;;;6.80;6.40;;;23.30;65.40;;;;;;5018625;28;20918;-65
2023/11/12 09:45:10;;;;;;;7.10;6.60;;;23.30;65.40;;;;;;5018482;28;20508;-64
2023/11/12 09:47:48;;;;;;;7.40;6.70;;;23.30;65.70;;;;;;5014227;28;20443;-64
2023/11/12 09:50:17;;;;;;;6.90;6.27;;;23.20;66.20;;;;;;5015133;28;20875;-64
